< < Back
Terminal Aerodrome Forecast


Current Version              Previous Versions:   1  2  3  4  5  6  7  8  9  

Terminal Aerodrome Forecast

443
FTAK31 PAJN 161700
TAFAGS
TAF
PAGS 161721Z 1618/1718 VRB05KT P6SM BKN040 OVC090
     FM162200 32006KT P6SM SCT040 BKN090
     FM171500 VRB03KT P6SM VCSH SCT040 BKN080
      AMD LTD TO CLD VIS AND WIND=



Latest METAR

118
SAUS70 KWBC 161900
MTRAGS
METAR KAGS 161853Z 08010KT 10SM CLR 15/M03 A3030 RMK AO2 SLP259
T01501033


USA.gov is the U.S. government's official web portal to all federal, state and local government web resources and services.